Time;durP1;ratioP1;P1;durP2;ratioP2;P2;SDS_P1;SDS_P2;PMS_P1;PMS_P2;Temp;Humidity;BMP_temperature;BMP_pressure;BME280_temperature;BME280_humidity;BME280_pressure;Samples;Min_cycle;Max_cycle;Signal;HPM_P1;HPM_P2
2019/08/14 00:00:31;;;;;;;5.699998;5.2;;;;;;;13.74;100;95552.39;;;;
2019/08/14 00:01:46;;;;;;;5.699998;5.2;;;;;;;13.74;100;95552.39;;;;
2019/08/14 00:02:48;;;;;;;5.699998;5.2;;;;;;;13.74;100;95552.39;;;;
2019/08/14 00:03:49;;;;;;;5.699998;5.2;;;;;;;13.74;100;95552.39;;;;
2019/08/14 00:04:50;;;;;;;5.699998;5.2;;;;;;;13.74;100;95552.39;;;;
2019/08/14 00:05:51;;;;;;;5.699998;5.2;;;;;;;13.74;100;95552.39;;;;
2019/08/14 00:06:52;;;;;;;5.699998;5.2;;;;;;;13.74;100;95552.39;;;;
2019/08/14 00:07:54;;;;;;;5.699998;5.2;;;;;;;13.74;100;95552.39;;;;
2019/08/14 00:08:55;;;;;;;5.699998;5.2;;;;;;;13.74;100;95552.39;;;;
2019/08/14 00:09:56;;;;;;;5.699998;5.2;;;;;;;13.74;100;95552.39;;;;
2019/08/14 00:10:57;;;;;;;6.950001;4.95;;;;;;;13.7;100;95563.45;;;;
2019/08/14 00:11:58;;;;;;;6.950001;4.95;;;;;;;13.7;100;95563.45;;;;
2019/08/14 00:12:59;;;;;;;6.950001;4.95;;;;;;;13.7;100;95563.45;;;;
2019/08/14 00:14:01;;;;;;;6.950001;4.95;;;;;;;13.7;100;95563.45;;;;
2019/08/14 00:15:04;;;;;;;6.950001;4.95;;;;;;;13.7;100;95563.45;;;;
2019/08/14 00:16:06;;;;;;;6.950001;4.95;;;;;;;13.7;100;95563.45;;;;
2019/08/14 00:17:08;;;;;;;6.950001;4.95;;;;;;;13.7;100;95563.45;;;;
2019/08/14 00:18:09;;;;;;;6.950001;4.95;;;;;;;13.7;100;95563.45;;;;
2019/08/14 00:19:10;;;;;;;6.950001;4.95;;;;;;;13.7;100;95563.45;;;;
2019/08/14 00:20:11;;;;;;;6.950001;4.95;;;;;;;13.7;100;95563.45;;;;
2019/08/14 00:21:13;;;;;;;5.700001;4.85;;;;;;;13.73;100;95557.09;;;;
2019/08/14 00:22:15;;;;;;;5.700001;4.85;;;;;;;13.73;100;95557.09;;;;
2019/08/14 00:23:16;;;;;;;5.700001;4.85;;;;;;;13.73;100;95557.09;;;;
2019/08/14 00:24:18;;;;;;;5.700001;4.85;;;;;;;13.73;100;95557.09;;;;
2019/08/14 00:25:19;;;;;;;5.700001;4.85;;;;;;;13.73;100;95557.09;;;;
2019/08/14 00:26:20;;;;;;;5.700001;4.85;;;;;;;13.73;100;95557.09;;;;
2019/08/14 00:27:22;;;;;;;5.700001;4.85;;;;;;;13.73;100;95557.09;;;;
2019/08/14 00:28:23;;;;;;;5.700001;4.85;;;;;;;13.73;100;95557.09;;;;
2019/08/14 00:29:24;;;;;;;5.700001;4.85;;;;;;;13.73;100;95557.09;;;;
2019/08/14 00:30:25;;;;;;;5.700001;4.85;;;;;;;13.73;100;95557.09;;;;
2019/08/14 00:31:43;;;;;;;5.699998;4.9;;;;;;;13.68;100;95559.22;;;;
2019/08/14 00:32:44;;;;;;;5.699998;4.9;;;;;;;13.68;100;95559.22;;;;
2019/08/14 00:33:45;;;;;;;5.699998;4.9;;;;;;;13.68;100;95559.22;;;;
2019/08/14 00:34:47;;;;;;;5.699998;4.9;;;;;;;13.68;100;95559.22;;;;
2019/08/14 00:35:48;;;;;;;5.699998;4.9;;;;;;;13.68;100;95559.22;;;;
2019/08/14 00:36:49;;;;;;;5.699998;4.9;;;;;;;13.68;100;95559.22;;;;
2019/08/14 00:37:50;;;;;;;5.699998;4.9;;;;;;;13.68;100;95559.22;;;;
2019/08/14 00:38:51;;;;;;;5.699998;4.9;;;;;;;13.68;100;95559.22;;;;
2019/08/14 00:39:52;;;;;;;5.699998;4.9;;;;;;;13.68;100;95559.22;;;;
2019/08/14 00:40:53;;;;;;;5.699998;4.9;;;;;;;13.68;100;95559.22;;;;
2019/08/14 00:42:01;;;;;;;5.999999;4.65;;;;;;;13.71;100;95561.42;;;;
2019/08/14 00:43:02;;;;;;;5.999999;4.65;;;;;;;13.71;100;95561.42;;;;
2019/08/14 00:44:03;;;;;;;5.999999;4.65;;;;;;;13.71;100;95561.42;;;;
2019/08/14 00:45:05;;;;;;;5.999999;4.65;;;;;;;13.71;100;95561.42;;;;
2019/08/14 00:46:07;;;;;;;5.999999;4.65;;;;;;;13.71;100;95561.42;;;;
2019/08/14 00:47:08;;;;;;;5.999999;4.65;;;;;;;13.71;100;95561.42;;;;
2019/08/14 00:48:09;;;;;;;5.999999;4.65;;;;;;;13.71;100;95561.42;;;;
2019/08/14 00:49:10;;;;;;;5.999999;4.65;;;;;;;13.71;100;95561.42;;;;
2019/08/14 00:50:11;;;;;;;5.999999;4.65;;;;;;;13.71;100;95561.42;;;;
2019/08/14 00:51:13;;;;;;;5.999999;4.65;;;;;;;13.71;100;95561.42;;;;
2019/08/14 00:52:15;;;;;;;5.999999;4.65;;;;;;;13.71;100;95561.42;;;;
2019/08/14 00:53:16;;;;;;;4.950001;4.450001;;;;;;;13.66;100;95546.43;;;;
2019/08/14 00:54:18;;;;;;;4.950001;4.450001;;;;;;;13.66;100;95546.43;;;;
2019/08/14 00:55:19;;;;;;;4.950001;4.450001;;;;;;;13.66;100;95546.43;;;;
2019/08/14 00:56:20;;;;;;;4.950001;4.450001;;;;;;;13.66;100;95546.43;;;;
2019/08/14 00:57:21;;;;;;;4.950001;4.450001;;;;;;;13.66;100;95546.43;;;;
2019/08/14 00:58:22;;;;;;;4.950001;4.450001;;;;;;;13.66;100;95546.43;;;;
2019/08/14 00:59:24;;;;;;;4.950001;4.450001;;;;;;;13.66;100;95546.43;;;;
2019/08/14 01:00:25;;;;;;;4.950001;4.450001;;;;;;;13.66;100;95546.43;;;;
2019/08/14 01:01:53;;;;;;;4.950001;4.450001;;;;;;;13.66;100;95546.43;;;;
2019/08/14 01:02:57;;;;;;;4.950001;4.450001;;;;;;;13.66;100;95546.43;;;;
2019/08/14 01:03:58;;;;;;;5.7;4.25;;;;;;;13.69;100;95549.61;;;;
2019/08/14 01:05:03;;;;;;;5.7;4.25;;;;;;;13.69;100;95549.61;;;;
2019/08/14 01:06:07;;;;;;;5.7;4.25;;;;;;;13.69;100;95549.61;;;;
2019/08/14 01:07:09;;;;;;;5.7;4.25;;;;;;;13.69;100;95549.61;;;;
2019/08/14 01:08:10;;;;;;;5.7;4.25;;;;;;;13.69;100;95549.61;;;;
2019/08/14 01:09:12;;;;;;;5.7;4.25;;;;;;;13.69;100;95549.61;;;;
2019/08/14 01:10:14;;;;;;;5.7;4.25;;;;;;;13.69;100;95549.61;;;;
2019/08/14 01:11:33;;;;;;;5.7;4.25;;;;;;;13.69;100;95549.61;;;;
2019/08/14 01:12:35;;;;;;;5.7;4.25;;;;;;;13.69;100;95549.61;;;;
2019/08/14 01:13:37;;;;;;;5.7;4.25;;;;;;;13.69;100;95549.61;;;;
2019/08/14 01:14:38;;;;;;;5.15;3.7;;;;;;;13.64;100;95543.14;;;;
2019/08/14 01:15:39;;;;;;;5.15;3.7;;;;;;;13.64;100;95543.14;;;;
2019/08/14 01:16:41;;;;;;;5.15;3.7;;;;;;;13.64;100;95543.14;;;;
2019/08/14 01:17:42;;;;;;;5.15;3.7;;;;;;;13.64;100;95543.14;;;;
2019/08/14 01:18:44;;;;;;;5.15;3.7;;;;;;;13.64;100;95543.14;;;;
2019/08/14 01:19:45;;;;;;;5.15;3.7;;;;;;;13.64;100;95543.14;;;;
2019/08/14 01:20:46;;;;;;;5.15;3.7;;;;;;;13.64;100;95543.14;;;;
2019/08/14 01:21:48;;;;;;;5.15;3.7;;;;;;;13.64;100;95543.14;;;;
2019/08/14 01:22:49;;;;;;;5.15;3.7;;;;;;;13.64;100;95543.14;;;;
2019/08/14 01:23:50;;;;;;;5.15;3.7;;;;;;;13.64;100;95543.14;;;;
2019/08/14 01:24:52;;;;;;;6.450001;4.65;;;;;;;13.65;100;95557.81;;;;
2019/08/14 01:25:53;;;;;;;6.450001;4.65;;;;;;;13.65;100;95557.81;;;;
2019/08/14 01:26:54;;;;;;;6.450001;4.65;;;;;;;13.65;100;95557.81;;;;
2019/08/14 01:27:55;;;;;;;6.450001;4.65;;;;;;;13.65;100;95557.81;;;;
2019/08/14 01:28:56;;;;;;;6.450001;4.65;;;;;;;13.65;100;95557.81;;;;
2019/08/14 01:29:57;;;;;;;6.450001;4.65;;;;;;;13.65;100;95557.81;;;;
2019/08/14 01:30:59;;;;;;;6.450001;4.65;;;;;;;13.65;100;95557.81;;;;
2019/08/14 01:32:11;;;;;;;6.450001;4.65;;;;;;;13.65;100;95557.81;;;;
2019/08/14 01:33:13;;;;;;;6.450001;4.65;;;;;;;13.65;100;95557.81;;;;
2019/08/14 01:34:14;;;;;;;6.450001;4.65;;;;;;;13.65;100;95557.81;;;;
2019/08/14 01:35:15;;;;;;;5.2;4.7;;;;;;;13.59;100;95556.11;;;;
2019/08/14 01:36:18;;;;;;;5.2;4.7;;;;;;;13.59;100;95556.11;;;;
2019/08/14 01:37:19;;;;;;;5.2;4.7;;;;;;;13.59;100;95556.11;;;;
2019/08/14 01:38:20;;;;;;;5.2;4.7;;;;;;;13.59;100;95556.11;;;;
2019/08/14 01:39:21;;;;;;;5.2;4.7;;;;;;;13.59;100;95556.11;;;;
2019/08/14 01:40:26;;;;;;;5.2;4.7;;;;;;;13.59;100;95556.11;;;;
2019/08/14 01:41:27;;;;;;;5.2;4.7;;;;;;;13.59;100;95556.11;;;;
2019/08/14 01:42:29;;;;;;;5.2;4.7;;;;;;;13.59;100;95556.11;;;;
2019/08/14 01:43:30;;;;;;;5.2;4.7;;;;;;;13.59;100;95556.11;;;;
2019/08/14 01:44:31;;;;;;;5.2;4.7;;;;;;;13.59;100;95556.11;;;;
2019/08/14 01:45:32;;;;;;;5.95;5.05;;;;;;;13.59;100;95563.42;;;;
2019/08/14 01:46:33;;;;;;;5.95;5.05;;;;;;;13.59;100;95563.42;;;;
2019/08/14 01:47:35;;;;;;;5.95;5.05;;;;;;;13.59;100;95563.42;;;;
2019/08/14 01:48:36;;;;;;;5.95;5.05;;;;;;;13.59;100;95563.42;;;;
2019/08/14 01:49:37;;;;;;;5.95;5.05;;;;;;;13.59;100;95563.42;;;;
2019/08/14 01:50:38;;;;;;;5.95;5.05;;;;;;;13.59;100;95563.42;;;;
2019/08/14 01:51:39;;;;;;;5.95;5.05;;;;;;;13.59;100;95563.42;;;;
2019/08/14 01:52:41;;;;;;;5.95;5.05;;;;;;;13.59;100;95563.42;;;;
2019/08/14 01:53:42;;;;;;;5.95;5.05;;;;;;;13.59;100;95563.42;;;;
2019/08/14 01:54:43;;;;;;;5.95;5.05;;;;;;;13.59;100;95563.42;;;;
2019/08/14 01:55:45;;;;;;;5.95;5.05;;;;;;;13.59;100;95563.42;;;;
2019/08/14 01:56:46;;;;;;;5.400001;4.400001;;;;;;;13.5;100;95563.12;;;;
2019/08/14 01:57:47;;;;;;;5.400001;4.400001;;;;;;;13.5;100;95563.12;;;;
2019/08/14 01:58:49;;;;;;;5.400001;4.400001;;;;;;;13.5;100;95563.12;;;;
2019/08/14 01:59:50;;;;;;;5.400001;4.400001;;;;;;;13.5;100;95563.12;;;;
2019/08/14 02:01:02;;;;;;;5.400001;4.400001;;;;;;;13.5;100;95563.12;;;;
2019/08/14 02:02:13;;;;;;;5.400001;4.400001;;;;;;;13.5;100;95563.12;;;;
2019/08/14 02:03:17;;;;;;;5.400001;4.400001;;;;;;;13.5;100;95563.12;;;;
2019/08/14 02:04:20;;;;;;;5.400001;4.400001;;;;;;;13.5;100;95563.12;;;;
2019/08/14 02:05:24;;;;;;;5.400001;4.400001;;;;;;;13.5;100;95563.12;;;;
2019/08/14 02:06:25;;;;;;;5.400001;4.400001;;;;;;;13.5;100;95563.12;;;;
2019/08/14 02:07:28;;;;;;;5.45;4.95;;;;;;;13.4;100;95567.85;;;;
2019/08/14 02:08:30;;;;;;;5.45;4.95;;;;;;;13.4;100;95567.85;;;;
2019/08/14 02:09:31;;;;;;;5.45;4.95;;;;;;;13.4;100;95567.85;;;;
2019/08/14 02:10:33;;;;;;;5.45;4.95;;;;;;;13.4;100;95567.85;;;;
2019/08/14 02:11:41;;;;;;;5.45;4.95;;;;;;;13.4;100;95567.85;;;;
2019/08/14 02:12:46;;;;;;;5.45;4.95;;;;;;;13.4;100;95567.85;;;;
2019/08/14 02:13:47;;;;;;;5.45;4.95;;;;;;;13.4;100;95567.85;;;;
2019/08/14 02:14:49;;;;;;;5.45;4.95;;;;;;;13.4;100;95567.85;;;;
2019/08/14 02:15:51;;;;;;;5.45;4.95;;;;;;;13.4;100;95567.85;;;;
2019/08/14 02:16:52;;;;;;;5.45;4.95;;;;;;;13.4;100;95567.85;;;;
2019/08/14 02:17:54;;;;;;;5.65;5.05;;;;;;;13.27;100;95564.53;;;;
2019/08/14 02:18:55;;;;;;;5.65;5.05;;;;;;;13.27;100;95564.53;;;;
2019/08/14 02:19:57;;;;;;;5.65;5.05;;;;;;;13.27;100;95564.53;;;;
2019/08/14 02:20:58;;;;;;;5.65;5.05;;;;;;;13.27;100;95564.53;;;;
2019/08/14 02:21:59;;;;;;;5.65;5.05;;;;;;;13.27;100;95564.53;;;;
2019/08/14 02:23:01;;;;;;;5.65;5.05;;;;;;;13.27;100;95564.53;;;;
2019/08/14 02:24:03;;;;;;;5.65;5.05;;;;;;;13.27;100;95564.53;;;;
2019/08/14 02:25:06;;;;;;;5.65;5.05;;;;;;;13.27;100;95564.53;;;;
2019/08/14 02:26:12;;;;;;;5.65;5.05;;;;;;;13.27;100;95564.53;;;;
2019/08/14 02:27:13;;;;;;;5.65;5.05;;;;;;;13.27;100;95564.53;;;;
2019/08/14 02:28:14;;;;;;;5.75;5.199999;;;;;;;13.13;100;95555.19;;;;
2019/08/14 02:29:18;;;;;;;5.75;5.199999;;;;;;;13.13;100;95555.19;;;;
2019/08/14 02:30:19;;;;;;;5.75;5.199999;;;;;;;13.13;100;95555.19;;;;
2019/08/14 02:31:31;;;;;;;5.75;5.199999;;;;;;;13.13;100;95555.19;;;;
2019/08/14 02:32:32;;;;;;;5.75;5.199999;;;;;;;13.13;100;95555.19;;;;
2019/08/14 02:33:34;;;;;;;5.75;5.199999;;;;;;;13.13;100;95555.19;;;;
2019/08/14 02:34:35;;;;;;;5.75;5.199999;;;;;;;13.13;100;95555.19;;;;
2019/08/14 02:35:36;;;;;;;5.75;5.199999;;;;;;;13.13;100;95555.19;;;;
2019/08/14 02:36:38;;;;;;;5.75;5.199999;;;;;;;13.13;100;95555.19;;;;
2019/08/14 02:37:39;;;;;;;5.75;5.199999;;;;;;;13.13;100;95555.19;;;;
2019/08/14 02:38:40;;;;;;;6.349999;5.25;;;;;;;13.04;100;95551.51;;;;
2019/08/14 02:39:42;;;;;;;6.349999;5.25;;;;;;;13.04;100;95551.51;;;;
2019/08/14 02:40:43;;;;;;;6.349999;5.25;;;;;;;13.04;100;95551.51;;;;
2019/08/14 02:41:59;;;;;;;6.349999;5.25;;;;;;;13.04;100;95551.51;;;;
2019/08/14 02:43:15;;;;;;;6.349999;5.25;;;;;;;13.04;100;95551.51;;;;
2019/08/14 02:44:16;;;;;;;6.349999;5.25;;;;;;;13.04;100;95551.51;;;;
2019/08/14 02:45:17;;;;;;;6.349999;5.25;;;;;;;13.04;100;95551.51;;;;
2019/08/14 02:46:18;;;;;;;6.349999;5.25;;;;;;;13.04;100;95551.51;;;;
2019/08/14 02:47:19;;;;;;;6.349999;5.25;;;;;;;13.04;100;95551.51;;;;
2019/08/14 02:48:21;;;;;;;6.349999;5.25;;;;;;;13.04;100;95551.51;;;;
2019/08/14 02:49:22;;;;;;;6.450001;5.650001;;;;;;;13.07;100;95553.34;;;;
2019/08/14 02:50:23;;;;;;;6.450001;5.650001;;;;;;;13.07;100;95553.34;;;;
2019/08/14 02:51:24;;;;;;;6.450001;5.650001;;;;;;;13.07;100;95553.34;;;;
2019/08/14 02:52:25;;;;;;;6.450001;5.650001;;;;;;;13.07;100;95553.34;;;;
2019/08/14 02:53:26;;;;;;;6.450001;5.650001;;;;;;;13.07;100;95553.34;;;;
2019/08/14 02:54:28;;;;;;;6.450001;5.650001;;;;;;;13.07;100;95553.34;;;;
2019/08/14 02:55:29;;;;;;;6.450001;5.650001;;;;;;;13.07;100;95553.34;;;;
2019/08/14 02:56:44;;;;;;;6.450001;5.650001;;;;;;;13.07;100;95553.34;;;;
2019/08/14 02:57:47;;;;;;;6.450001;5.650001;;;;;;;13.07;100;95553.34;;;;
2019/08/14 02:58:49;;;;;;;6.450001;5.650001;;;;;;;13.07;100;95553.34;;;;
2019/08/14 02:59:50;;;;;;;6.65;6.05;;;;;;;13;100;95556.29;;;;
2019/08/14 03:00:51;;;;;;;6.65;6.05;;;;;;;13;100;95556.29;;;;
2019/08/14 03:01:53;;;;;;;6.65;6.05;;;;;;;13;100;95556.29;;;;
2019/08/14 03:02:54;;;;;;;6.65;6.05;;;;;;;13;100;95556.29;;;;
2019/08/14 03:03:55;;;;;;;6.65;6.05;;;;;;;13;100;95556.29;;;;
2019/08/14 03:04:56;;;;;;;6.65;6.05;;;;;;;13;100;95556.29;;;;
2019/08/14 03:05:57;;;;;;;6.65;6.05;;;;;;;13;100;95556.29;;;;
2019/08/14 03:06:58;;;;;;;6.65;6.05;;;;;;;13;100;95556.29;;;;
2019/08/14 03:08:00;;;;;;;6.65;6.05;;;;;;;13;100;95556.29;;;;
2019/08/14 03:09:01;;;;;;;6.65;6.05;;;;;;;13;100;95556.29;;;;
2019/08/14 03:10:11;;;;;;;6.65;6.05;;;;;;;13;100;95556.29;;;;
2019/08/14 03:11:13;;;;;;;8.450001;5.85;;;;;;;12.98;100;95552.06;;;;
2019/08/14 03:12:15;;;;;;;8.450001;5.85;;;;;;;12.98;100;95552.06;;;;
2019/08/14 03:13:16;;;;;;;8.450001;5.85;;;;;;;12.98;100;95552.06;;;;
2019/08/14 03:14:17;;;;;;;8.450001;5.85;;;;;;;12.98;100;95552.06;;;;
2019/08/14 03:15:19;;;;;;;8.450001;5.85;;;;;;;12.98;100;95552.06;;;;
2019/08/14 03:16:21;;;;;;;8.450001;5.85;;;;;;;12.98;100;95552.06;;;;
2019/08/14 03:17:22;;;;;;;8.450001;5.85;;;;;;;12.98;100;95552.06;;;;
2019/08/14 03:18:23;;;;;;;8.450001;5.85;;;;;;;12.98;100;95552.06;;;;
2019/08/14 03:19:25;;;;;;;8.450001;5.85;;;;;;;12.98;100;95552.06;;;;
2019/08/14 03:20:26;;;;;;;8.450001;5.85;;;;;;;12.98;100;95552.06;;;;
2019/08/14 03:21:27;;;;;;;6.7;5.15;;;;;;;12.88;100;95546.85;;;;
2019/08/14 03:22:29;;;;;;;6.7;5.15;;;;;;;12.88;100;95546.85;;;;
2019/08/14 03:23:30;;;;;;;6.7;5.15;;;;;;;12.88;100;95546.85;;;;
2019/08/14 03:24:31;;;;;;;6.7;5.15;;;;;;;12.88;100;95546.85;;;;
2019/08/14 03:25:32;;;;;;;6.7;5.15;;;;;;;12.88;100;95546.85;;;;
2019/08/14 03:26:33;;;;;;;6.7;5.15;;;;;;;12.88;100;95546.85;;;;
2019/08/14 03:27:34;;;;;;;6.7;5.15;;;;;;;12.88;100;95546.85;;;;
2019/08/14 03:28:36;;;;;;;6.7;5.15;;;;;;;12.88;100;95546.85;;;;
2019/08/14 03:29:37;;;;;;;6.7;5.15;;;;;;;12.88;100;95546.85;;;;
2019/08/14 03:30:43;;;;;;;6.7;5.15;;;;;;;12.88;100;95546.85;;;;
2019/08/14 03:31:44;;;;;;;5.199999;4.699999;;;;;;;12.68;100;95544.32;;;;
2019/08/14 03:32:45;;;;;;;5.199999;4.699999;;;;;;;12.68;100;95544.32;;;;
2019/08/14 03:33:47;;;;;;;5.199999;4.699999;;;;;;;12.68;100;95544.32;;;;
2019/08/14 03:34:48;;;;;;;5.199999;4.699999;;;;;;;12.68;100;95544.32;;;;
2019/08/14 03:35:49;;;;;;;5.199999;4.699999;;;;;;;12.68;100;95544.32;;;;
2019/08/14 03:36:50;;;;;;;5.199999;4.699999;;;;;;;12.68;100;95544.32;;;;
2019/08/14 03:37:51;;;;;;;5.199999;4.699999;;;;;;;12.68;100;95544.32;;;;
2019/08/14 03:38:52;;;;;;;5.199999;4.699999;;;;;;;12.68;100;95544.32;;;;
2019/08/14 03:39:54;;;;;;;5.199999;4.699999;;;;;;;12.68;100;95544.32;;;;
2019/08/14 03:40:55;;;;;;;5.199999;4.699999;;;;;;;12.68;100;95544.32;;;;
2019/08/14 03:42:07;;;;;;;5.199999;4.699999;;;;;;;12.68;100;95544.32;;;;
2019/08/14 03:43:08;;;;;;;6.099999;4.75;;;;;;;12.3;100;95554.93;;;;
2019/08/14 03:44:09;;;;;;;6.099999;4.75;;;;;;;12.3;100;95554.93;;;;
2019/08/14 03:45:10;;;;;;;6.099999;4.75;;;;;;;12.3;100;95554.93;;;;
2019/08/14 03:46:13;;;;;;;6.099999;4.75;;;;;;;12.3;100;95554.93;;;;
2019/08/14 03:47:14;;;;;;;6.099999;4.75;;;;;;;12.3;100;95554.93;;;;
2019/08/14 03:48:15;;;;;;;6.099999;4.75;;;;;;;12.3;100;95554.93;;;;
2019/08/14 03:49:16;;;;;;;6.099999;4.75;;;;;;;12.3;100;95554.93;;;;
2019/08/14 03:50:17;;;;;;;6.099999;4.75;;;;;;;12.3;100;95554.93;;;;
2019/08/14 03:51:26;;;;;;;6.099999;4.75;;;;;;;12.3;100;95554.93;;;;
2019/08/14 03:52:27;;;;;;;6.099999;4.75;;;;;;;12.3;100;95554.93;;;;
2019/08/14 03:53:28;;;;;;;8.699999;5.649999;;;;;;;11.97;100;95554.24;;;;
2019/08/14 03:54:29;;;;;;;8.699999;5.649999;;;;;;;11.97;100;95554.24;;;;
2019/08/14 03:55:30;;;;;;;8.699999;5.649999;;;;;;;11.97;100;95554.24;;;;
2019/08/14 03:56:31;;;;;;;8.699999;5.649999;;;;;;;11.97;100;95554.24;;;;
2019/08/14 03:57:33;;;;;;;8.699999;5.649999;;;;;;;11.97;100;95554.24;;;;
2019/08/14 03:58:34;;;;;;;8.699999;5.649999;;;;;;;11.97;100;95554.24;;;;
2019/08/14 03:59:35;;;;;;;8.699999;5.649999;;;;;;;11.97;100;95554.24;;;;
2019/08/14 04:00:36;;;;;;;8.699999;5.649999;;;;;;;11.97;100;95554.24;;;;
2019/08/14 04:01:37;;;;;;;8.699999;5.649999;;;;;;;11.97;100;95554.24;;;;
2019/08/14 04:02:38;;;;;;;8.699999;5.649999;;;;;;;11.97;100;95554.24;;;;
2019/08/14 04:03:40;;;;;;;7.600001;5.349999;;;;;;;11.65;100;95560.57;;;;
2019/08/14 04:04:41;;;;;;;7.600001;5.349999;;;;;;;11.65;100;95560.57;;;;
2019/08/14 04:05:42;;;;;;;7.600001;5.349999;;;;;;;11.65;100;95560.57;;;;
2019/08/14 04:06:43;;;;;;;7.600001;5.349999;;;;;;;11.65;100;95560.57;;;;
2019/08/14 04:07:44;;;;;;;7.600001;5.349999;;;;;;;11.65;100;95560.57;;;;
2019/08/14 04:08:45;;;;;;;7.600001;5.349999;;;;;;;11.65;100;95560.57;;;;
2019/08/14 04:09:46;;;;;;;7.600001;5.349999;;;;;;;11.65;100;95560.57;;;;
2019/08/14 04:10:47;;;;;;;7.600001;5.349999;;;;;;;11.65;100;95560.57;;;;
2019/08/14 04:11:57;;;;;;;7.600001;5.349999;;;;;;;11.65;100;95560.57;;;;
2019/08/14 04:12:58;;;;;;;7.600001;5.349999;;;;;;;11.65;100;95560.57;;;;
2019/08/14 04:13:59;;;;;;;7.600001;5.349999;;;;;;;11.65;100;95560.57;;;;
2019/08/14 04:15:01;;;;;;;7;5.55;;;;;;;11.47;100;95571.04;;;;
2019/08/14 04:16:05;;;;;;;7;5.55;;;;;;;11.47;100;95571.04;;;;
2019/08/14 04:17:06;;;;;;;7;5.55;;;;;;;11.47;100;95571.04;;;;
2019/08/14 04:18:07;;;;;;;7;5.55;;;;;;;11.47;100;95571.04;;;;
2019/08/14 04:19:08;;;;;;;7;5.55;;;;;;;11.47;100;95571.04;;;;
2019/08/14 04:20:09;;;;;;;7;5.55;;;;;;;11.47;100;95571.04;;;;
2019/08/14 04:21:11;;;;;;;7;5.55;;;;;;;11.47;100;95571.04;;;;
2019/08/14 04:22:12;;;;;;;7;5.55;;;;;;;11.47;100;95571.04;;;;
2019/08/14 04:23:13;;;;;;;7;5.55;;;;;;;11.47;100;95571.04;;;;
2019/08/14 04:24:15;;;;;;;7;5.55;;;;;;;11.47;100;95571.04;;;;
2019/08/14 04:25:16;;;;;;;8.75;6.9;;;;;;;11.27;100;95567.43;;;;
2019/08/14 04:26:17;;;;;;;8.75;6.9;;;;;;;11.27;100;95567.43;;;;
2019/08/14 04:27:19;;;;;;;8.75;6.9;;;;;;;11.27;100;95567.43;;;;
2019/08/14 04:28:20;;;;;;;8.75;6.9;;;;;;;11.27;100;95567.43;;;;
2019/08/14 04:29:21;;;;;;;8.75;6.9;;;;;;;11.27;100;95567.43;;;;
2019/08/14 04:30:22;;;;;;;8.75;6.9;;;;;;;11.27;100;95567.43;;;;
2019/08/14 04:31:38;;;;;;;8.75;6.9;;;;;;;11.27;100;95567.43;;;;
2019/08/14 04:32:39;;;;;;;8.75;6.9;;;;;;;11.27;100;95567.43;;;;
2019/08/14 04:33:40;;;;;;;8.75;6.9;;;;;;;11.27;100;95567.43;;;;
2019/08/14 04:34:41;;;;;;;8.75;6.9;;;;;;;11.27;100;95567.43;;;;
2019/08/14 04:35:43;;;;;;;9.75;7.000001;;;;;;;11.28;100;95576.23;;;;
2019/08/14 04:36:44;;;;;;;9.75;7.000001;;;;;;;11.28;100;95576.23;;;;
2019/08/14 04:37:45;;;;;;;9.75;7.000001;;;;;;;11.28;100;95576.23;;;;
2019/08/14 04:38:46;;;;;;;9.75;7.000001;;;;;;;11.28;100;95576.23;;;;
2019/08/14 04:39:47;;;;;;;9.75;7.000001;;;;;;;11.28;100;95576.23;;;;
2019/08/14 04:40:48;;;;;;;9.75;7.000001;;;;;;;11.28;100;95576.23;;;;
2019/08/14 04:41:52;;;;;;;9.75;7.000001;;;;;;;11.28;100;95576.23;;;;
2019/08/14 04:42:53;;;;;;;9.75;7.000001;;;;;;;11.28;100;95576.23;;;;
2019/08/14 04:43:54;;;;;;;9.75;7.000001;;;;;;;11.28;100;95576.23;;;;
2019/08/14 04:44:55;;;;;;;9.75;7.000001;;;;;;;11.28;100;95576.23;;;;
2019/08/14 04:45:56;;;;;;;7.9;7.100001;;;;;;;11.3;100;95573.61;;;;
2019/08/14 04:46:58;;;;;;;7.9;7.100001;;;;;;;11.3;100;95573.61;;;;
2019/08/14 04:47:59;;;;;;;7.9;7.100001;;;;;;;11.3;100;95573.61;;;;
2019/08/14 04:49:00;;;;;;;7.9;7.100001;;;;;;;11.3;100;95573.61;;;;
2019/08/14 04:50:01;;;;;;;7.9;7.100001;;;;;;;11.3;100;95573.61;;;;
2019/08/14 04:51:05;;;;;;;7.9;7.100001;;;;;;;11.3;100;95573.61;;;;
2019/08/14 04:52:06;;;;;;;7.9;7.100001;;;;;;;11.3;100;95573.61;;;;
2019/08/14 04:53:07;;;;;;;7.9;7.100001;;;;;;;11.3;100;95573.61;;;;
2019/08/14 04:54:08;;;;;;;7.9;7.100001;;;;;;;11.3;100;95573.61;;;;
2019/08/14 04:55:09;;;;;;;7.9;7.100001;;;;;;;11.3;100;95573.61;;;;
2019/08/14 04:56:12;;;;;;;7.9;7.100001;;;;;;;11.3;100;95573.61;;;;
2019/08/14 04:57:13;;;;;;;11.5;8.2;;;;;;;11.42;100;95592.97;;;;
2019/08/14 04:58:14;;;;;;;11.5;8.2;;;;;;;11.42;100;95592.97;;;;
2019/08/14 04:59:15;;;;;;;11.5;8.2;;;;;;;11.42;100;95592.97;;;;
2019/08/14 05:00:17;;;;;;;11.5;8.2;;;;;;;11.42;100;95592.97;;;;
2019/08/14 05:01:20;;;;;;;11.5;8.2;;;;;;;11.42;100;95592.97;;;;
2019/08/14 05:02:21;;;;;;;11.5;8.2;;;;;;;11.42;100;95592.97;;;;
2019/08/14 05:03:22;;;;;;;11.5;8.2;;;;;;;11.42;100;95592.97;;;;
2019/08/14 05:04:23;;;;;;;11.5;8.2;;;;;;;11.42;100;95592.97;;;;
2019/08/14 05:05:24;;;;;;;11.5;8.2;;;;;;;11.42;100;95592.97;;;;
2019/08/14 05:06:31;;;;;;;11.5;8.2;;;;;;;11.42;100;95592.97;;;;
2019/08/14 05:07:32;;;;;;;9.500002;8.249999;;;;;;;11.51;100;95588.04;;;;
2019/08/14 05:08:33;;;;;;;9.500002;8.249999;;;;;;;11.51;100;95588.04;;;;
2019/08/14 05:09:35;;;;;;;9.500002;8.249999;;;;;;;11.51;100;95588.04;;;;
2019/08/14 05:10:36;;;;;;;9.500002;8.249999;;;;;;;11.51;100;95588.04;;;;
2019/08/14 05:11:37;;;;;;;9.500002;8.249999;;;;;;;11.51;100;95588.04;;;;
2019/08/14 05:12:38;;;;;;;9.500002;8.249999;;;;;;;11.51;100;95588.04;;;;
2019/08/14 05:13:39;;;;;;;9.500002;8.249999;;;;;;;11.51;100;95588.04;;;;
2019/08/14 05:14:40;;;;;;;9.500002;8.249999;;;;;;;11.51;100;95588.04;;;;
2019/08/14 05:15:41;;;;;;;9.500002;8.249999;;;;;;;11.51;100;95588.04;;;;
2019/08/14 05:16:42;;;;;;;9.500002;8.249999;;;;;;;11.51;100;95588.04;;;;
2019/08/14 05:17:44;;;;;;;10.15;8.549999;;;;;;;11.71;100;95582.59;;;;
2019/08/14 05:18:45;;;;;;;10.15;8.549999;;;;;;;11.71;100;95582.59;;;;
2019/08/14 05:19:46;;;;;;;10.15;8.549999;;;;;;;11.71;100;95582.59;;;;
2019/08/14 05:20:47;;;;;;;10.15;8.549999;;;;;;;11.71;100;95582.59;;;;
2019/08/14 05:21:48;;;;;;;10.15;8.549999;;;;;;;11.71;100;95582.59;;;;
2019/08/14 05:22:49;;;;;;;10.15;8.549999;;;;;;;11.71;100;95582.59;;;;
2019/08/14 05:23:50;;;;;;;10.15;8.549999;;;;;;;11.71;100;95582.59;;;;
2019/08/14 05:24:52;;;;;;;10.15;8.549999;;;;;;;11.71;100;95582.59;;;;
2019/08/14 05:25:53;;;;;;;10.15;8.549999;;;;;;;11.71;100;95582.59;;;;
2019/08/14 05:26:54;;;;;;;10.15;8.549999;;;;;;;11.71;100;95582.59;;;;
2019/08/14 05:27:55;;;;;;;10.15;8.549999;;;;;;;11.71;100;95582.59;;;;
2019/08/14 05:28:57;;;;;;;10;9;;;;;;;11.96;100;95586.42;;;;
2019/08/14 05:29:58;;;;;;;10;9;;;;;;;11.96;100;95586.42;;;;
2019/08/14 05:30:59;;;;;;;10;9;;;;;;;11.96;100;95586.42;;;;
2019/08/14 05:32:00;;;;;;;10;9;;;;;;;11.96;100;95586.42;;;;
2019/08/14 05:33:01;;;;;;;10;9;;;;;;;11.96;100;95586.42;;;;
2019/08/14 05:34:03;;;;;;;10;9;;;;;;;11.96;100;95586.42;;;;
2019/08/14 05:35:04;;;;;;;10;9;;;;;;;11.96;100;95586.42;;;;
2019/08/14 05:36:07;;;;;;;10;9;;;;;;;11.96;100;95586.42;;;;
2019/08/14 05:37:08;;;;;;;10;9;;;;;;;11.96;100;95586.42;;;;
2019/08/14 05:38:09;;;;;;;10;9;;;;;;;11.96;100;95586.42;;;;
2019/08/14 05:39:10;;;;;;;8;7;;;;;;;12.31;100;95590.3;;;;
2019/08/14 05:40:11;;;;;;;8;7;;;;;;;12.31;100;95590.3;;;;
2019/08/14 05:41:13;;;;;;;8;7;;;;;;;12.31;100;95590.3;;;;
2019/08/14 05:42:15;;;;;;;8;7;;;;;;;12.31;100;95590.3;;;;
2019/08/14 05:43:16;;;;;;;8;7;;;;;;;12.31;100;95590.3;;;;
2019/08/14 05:44:17;;;;;;;8;7;;;;;;;12.31;100;95590.3;;;;
2019/08/14 05:45:19;;;;;;;8;7;;;;;;;12.31;100;95590.3;;;;
2019/08/14 05:46:26;;;;;;;8;7;;;;;;;12.31;100;95590.3;;;;
2019/08/14 05:47:27;;;;;;;8;7;;;;;;;12.31;100;95590.3;;;;
2019/08/14 05:48:28;;;;;;;8;7;;;;;;;12.31;100;95590.3;;;;
2019/08/14 05:49:29;;;;;;;8;7;;;;;;;12.31;100;95590.3;;;;
2019/08/14 05:50:30;;;;;;;8.900002;7.25;;;;;;;12.63;100;95600.56;;;;
2019/08/14 05:51:48;;;;;;;8.900002;7.25;;;;;;;12.63;100;95600.56;;;;
2019/08/14 05:52:49;;;;;;;8.900002;7.25;;;;;;;12.63;100;95600.56;;;;
2019/08/14 05:53:50;;;;;;;8.900002;7.25;;;;;;;12.63;100;95600.56;;;;
2019/08/14 05:54:51;;;;;;;8.900002;7.25;;;;;;;12.63;100;95600.56;;;;
2019/08/14 05:55:52;;;;;;;8.900002;7.25;;;;;;;12.63;100;95600.56;;;;
2019/08/14 05:56:53;;;;;;;8.900002;7.25;;;;;;;12.63;100;95600.56;;;;
2019/08/14 05:57:55;;;;;;;8.900002;7.25;;;;;;;12.63;100;95600.56;;;;
2019/08/14 05:58:56;;;;;;;8.900002;7.25;;;;;;;12.63;100;95600.56;;;;
2019/08/14 05:59:57;;;;;;;8.900002;7.25;;;;;;;12.63;100;95600.56;;;;
2019/08/14 06:00:58;;;;;;;7;6.149999;;;;;;;13.01;100;95607.54;;;;
2019/08/14 06:01:59;;;;;;;7;6.149999;;;;;;;13.01;100;95607.54;;;;
2019/08/14 06:03:00;;;;;;;7;6.149999;;;;;;;13.01;100;95607.54;;;;
2019/08/14 06:04:02;;;;;;;7;6.149999;;;;;;;13.01;100;95607.54;;;;
2019/08/14 06:05:04;;;;;;;7;6.149999;;;;;;;13.01;100;95607.54;;;;